Time;durP1;ratioP1;P1;durP2;ratioP2;P2;SDS_P1;SDS_P2;PMS_P1;PMS_P2;Temp;Humidity;BMP_temperature;BMP_pressure;BME280_temperature;BME280_humidity;BME280_pressure;Samples;Min_cycle;Max_cycle;Signal;HPM_P1;HPM_P2
2021/11/03 00:00:39;;;;;;;42.67;27.10;;;;;;;8.73;100.00;99046.64;1721350;82;21025;-77
2021/11/03 00:03:06;;;;;;;50.48;25.80;;;;;;;8.68;100.00;99039.36;1715296;81;21054;-73
2021/11/03 00:05:33;;;;;;;40.33;24.90;;;;;;;8.65;100.00;99052.47;1715937;82;20995;-74
2021/11/03 00:08:01;;;;;;;42.73;28.12;;;;;;;8.66;100.00;99038.02;1667863;84;21525;-74
2021/11/03 00:10:27;;;;;;;38.88;27.00;;;;;;;8.62;100.00;99044.42;1709395;83;20987;-75
2021/11/03 00:12:54;;;;;;;41.37;26.80;;;;;;;8.61;100.00;99039.30;1726824;81;21012;-73
2021/11/03 00:15:20;;;;;;;42.90;26.17;;;;;;;8.64;100.00;99040.13;1771909;80;21574;-71
2021/11/03 00:17:46;;;;;;;41.45;27.67;;;;;;;8.65;100.00;99039.06;1740173;81;21249;-71
2021/11/03 00:20:13;;;;;;;41.30;28.05;;;;;;;8.68;100.00;99040.70;1740622;80;20923;-74
2021/11/03 00:22:40;;;;;;;41.13;27.48;;;;;;;8.73;100.00;99034.05;1765640;81;21040;-87
2021/11/03 00:25:07;;;;;;;45.43;27.80;;;;;;;8.72;100.00;99033.80;1738660;81;21058;-85
2021/11/03 00:27:33;;;;;;;40.98;28.67;;;;;;;8.72;100.00;99035.14;1694721;82;20912;-83
2021/11/03 00:30:00;;;;;;;51.88;29.52;;;;;;;8.72;100.00;99043.70;1740783;80;21082;-83
2021/11/03 00:32:27;;;;;;;49.35;28.15;;;;;;;8.74;100.00;99041.04;1767190;80;21543;-79
2021/11/03 00:34:53;;;;;;;50.63;30.15;;;;;;;8.77;100.00;99044.29;1762340;80;21529;-79
2021/11/03 00:37:19;;;;;;;41.77;27.07;;;;;;;8.75;100.00;99055.25;1762125;81;21469;-76
2021/11/03 00:39:46;;;;;;;49.03;27.52;;;;;;;8.78;100.00;99052.06;1772864;80;21498;-77
2021/11/03 00:42:12;;;;;;;39.08;25.40;;;;;;;8.78;100.00;99040.55;1780485;80;21110;-76
2021/11/03 00:44:39;;;;;;;50.58;28.45;;;;;;;8.82;100.00;99038.98;1780285;80;21532;-75
2021/11/03 00:47:06;;;;;;;47.53;29.92;;;;;;;8.84;100.00;99036.30;1746952;81;21016;-78
2021/11/03 00:49:33;;;;;;;46.75;28.27;;;;;;;8.84;100.00;99043.53;1718807;81;20968;-82
2021/11/03 00:51:59;;;;;;;35.65;25.12;;;;;;;8.85;100.00;99044.63;1764289;80;21003;-85
2021/11/03 00:54:27;;;;;;;40.03;26.90;;;;;;;8.89;100.00;99039.56;1747722;80;21884;-78
2021/11/03 00:56:54;;;;;;;40.20;26.30;;;;;;;8.88;100.00;99048.14;1756364;80;20986;-78
2021/11/03 00:59:21;;;;;;;46.37;28.17;;;;;;;8.88;100.00;99052.16;1755059;80;21522;-75
2021/11/03 01:01:47;;;;;;;49.40;27.70;;;;;;;8.89;100.00;99050.29;1764652;81;21026;-84
2021/11/03 01:04:15;;;;;;;35.52;27.30;;;;;;;8.91;100.00;99042.28;1764598;81;20959;-82
2021/11/03 01:06:42;;;;;;;41.48;26.90;;;;;;;9.02;100.00;99052.55;1764596;81;21121;-82
2021/11/03 01:09:10;;;;;;;33.15;23.95;;;;;;;9.03;100.00;99054.98;1764407;81;20936;-81
2021/11/03 01:11:38;;;;;;;35.15;23.47;;;;;;;9.06;100.00;99056.36;1779506;80;20911;-83
2021/11/03 01:14:05;;;;;;;45.30;25.72;;;;;;;9.05;100.00;99050.19;1763974;81;21055;-79
2021/11/03 01:16:32;;;;;;;42.95;26.40;;;;;;;9.06;100.00;99049.66;1764022;81;21033;-75
2021/11/03 01:18:58;;;;;;;33.00;24.82;;;;;;;9.12;100.00;99045.92;1711882;82;22330;-82
2021/11/03 01:21:24;;;;;;;47.78;27.95;;;;;;;9.13;100.00;99042.19;1754432;81;21543;-79
2021/11/03 01:23:51;;;;;;;42.43;25.60;;;;;;;9.13;100.00;99043.00;1743391;82;20925;-78
2021/11/03 01:26:18;;;;;;;32.90;24.52;;;;;;;9.17;100.00;99044.62;1741182;81;21547;-85
2021/11/03 01:28:45;;;;;;;40.63;26.95;;;;;;;9.16;100.00;99044.34;1697900;83;21058;-79
2021/11/03 01:31:12;;;;;;;42.00;27.27;;;;;;;9.13;100.00;99040.84;1698655;83;21083;-75
2021/11/03 01:33:39;;;;;;;35.88;25.45;;;;;;;9.14;100.00;99041.13;1752849;81;20959;-85
2021/11/03 01:36:05;;;;;;;36.53;22.20;;;;;;;9.16;100.00;99045.69;1741029;81;21022;-75
2021/11/03 01:38:32;;;;;;;34.60;23.47;;;;;;;9.11;100.00;99045.67;1733514;81;21070;-79
2021/11/03 01:40:59;;;;;;;38.28;25.20;;;;;;;9.09;100.00;99039.74;1740471;81;21082;-76
2021/11/03 01:43:48;;;;;;;29.92;22.95;;;;;;;9.12;100.00;99045.40;1712649;81;21056;-79
2021/11/03 01:46:25;;;;;;;40.65;24.05;;;;;;;9.18;100.00;99032.84;1713960;81;20932;-82
2021/11/03 01:49:07;;;;;;;31.70;23.22;;;;;;;9.25;100.00;99042.02;1756730;81;21039;-74
2021/11/03 01:51:58;;;;;;;33.10;23.22;;;;;;;9.28;100.00;99038.28;1774472;80;20990;-81
2021/11/03 01:54:36;;;;;;;36.77;25.80;;;;;;;9.24;100.00;99047.10;1712771;82;20901;-91
2021/11/03 01:57:07;;;;;;;42.50;27.87;;;;;;;9.19;100.00;99047.34;1728069;82;22325;-85
2021/11/03 01:59:38;;;;;;;40.58;27.85;;;;;;;9.20;100.00;99048.16;1725189;82;20954;-82
2021/11/03 02:02:05;;;;;;;34.08;24.72;;;;;;;9.30;100.00;99049.58;1731437;82;20996;-78
2021/11/03 02:04:33;;;;;;;42.27;26.85;;;;;;;9.35;100.00;99050.93;1718761;82;21508;-76
2021/11/03 02:07:00;;;;;;;39.13;26.25;;;;;;;9.35;100.00;99050.93;1719496;82;21552;-77
2021/11/03 02:09:27;;;;;;;38.05;25.32;;;;;;;9.34;100.00;99042.63;1689876;82;21568;-81
2021/11/03 02:11:53;;;;;;;32.17;25.00;;;;;;;9.38;100.00;99045.59;1731569;80;21572;-81
2021/11/03 02:14:20;;;;;;;38.45;28.00;;;;;;;9.39;100.00;99042.67;1748779;81;21014;-80
2021/11/03 02:16:49;;;;;;;36.28;24.55;;;;;;;9.42;100.00;99044.02;1754444;81;21043;-82
2021/11/03 02:19:29;;;;;;;37.70;25.60;;;;;;;9.37;100.00;99044.78;1752937;81;21075;-80
2021/11/03 02:22:24;;;;;;;36.70;24.20;;;;;;;9.33;100.00;99054.42;1762835;81;21019;-79
2021/11/03 02:25:11;;;;;;;37.65;26.65;;;;;;;9.38;100.00;99051.78;1739188;81;20989;-78
2021/11/03 02:27:40;;;;;;;33.83;24.57;;;;;;;9.35;100.00;99050.93;1763698;81;21023;-78
2021/11/03 02:30:10;;;;;;;38.25;26.00;;;;;;;9.39;100.00;99053.94;1763298;81;21519;-77
2021/11/03 02:32:40;;;;;;;39.25;26.97;;;;;;;9.33;100.00;99052.27;1764974;81;20939;-78
2021/11/03 02:35:06;;;;;;;38.88;24.77;;;;;;;9.28;100.00;99044.99;1764608;81;21164;-80
2021/11/03 02:37:40;;;;;;;34.38;24.27;;;;;;;9.22;100.00;99046.02;1760096;81;21021;-76
2021/11/03 02:40:24;;;;;;;36.25;25.43;;;;;;;9.24;100.00;99043.89;1761193;81;21044;-75
2021/11/03 02:43:08;;;;;;;30.05;21.60;;;;;;;9.26;100.00;99047.11;1754558;81;21150;-78
2021/11/03 02:45:45;;;;;;;40.78;26.93;;;;;;;9.32;100.00;99038.56;1739365;81;21031;-76
2021/11/03 02:48:13;;;;;;;41.83;28.40;;;;;;;9.27;100.00;99039.88;1698386;83;21002;-79
2021/11/03 02:51:08;;;;;;;45.08;29.00;;;;;;;9.25;100.00;99036.12;1700597;83;20964;-79
2021/11/03 02:53:46;;;;;;;38.28;26.20;;;;;;;9.26;100.00;99031.01;1727637;83;21485;-79
2021/11/03 02:56:15;;;;;;;34.08;23.32;;;;;;;9.26;100.00;99035.03;1764010;81;20987;-77
2021/11/03 02:58:41;;;;;;;34.30;24.80;;;;;;;9.29;100.00;99037.75;1760059;80;21066;-79
2021/11/03 03:01:16;;;;;;;33.95;23.42;;;;;;;9.27;100.00;99032.63;1761203;81;21109;-78
2021/11/03 03:03:45;;;;;;;25.05;19.32;;;;;;;9.28;100.00;99039.63;1745356;81;20997;-76
2021/11/03 03:06:20;;;;;;;33.35;23.02;;;;;;;9.31;100.00;99032.92;1763452;81;21007;-78
2021/11/03 03:08:47;;;;;;;26.80;20.62;;;;;;;9.33;100.00;99038.85;1746006;80;20984;-81
2021/11/03 03:11:15;;;;;;;30.23;19.45;;;;;;;9.37;100.00;99035.92;1731133;82;21050;-79
2021/11/03 03:13:42;;;;;;;29.75;20.68;;;;;;;9.35;100.00;99033.48;1736644;82;21023;-76
2021/11/03 03:16:08;;;;;;;30.32;20.77;;;;;;;9.32;100.00;99034.02;1731476;82;21582;-78
2021/11/03 03:18:34;;;;;;;31.00;23.18;;;;;;;9.26;100.00;99041.74;1752931;81;20928;-77
2021/11/03 03:21:02;;;;;;;24.92;18.27;;;;;;;9.22;100.00;99058.61;1719291;82;20986;-78
2021/11/03 03:23:28;;;;;;;28.27;21.68;;;;;;;9.23;100.00;99068.28;1732760;82;21013;-79
2021/11/03 03:25:58;;;;;;;29.32;22.25;;;;;;;9.28;100.00;99075.03;1715836;82;21936;-80
2021/11/03 03:28:25;;;;;;;32.03;22.10;;;;;;;9.30;100.00;99071.05;1732912;82;21757;-79
2021/11/03 03:30:52;;;;;;;28.77;22.22;;;;;;;9.31;100.00;99064.59;1715788;82;20922;-85
2021/11/03 03:33:18;;;;;;;33.55;23.45;;;;;;;9.27;100.00;99068.05;1715908;82;21001;-83
2021/11/03 03:35:46;;;;;;;34.70;24.23;;;;;;;9.24;100.00;99064.02;1733002;81;21496;-88
2021/11/03 03:38:13;;;;;;;30.25;23.65;;;;;;;9.27;100.00;99070.20;1732627;82;21485;-84
2021/11/03 03:40:40;;;;;;;40.52;24.82;;;;;;;9.26;100.00;99061.87;1703293;83;20951;-79
2021/11/03 03:43:07;;;;;;;29.65;22.87;;;;;;;9.30;100.00;99064.34;1675868;84;20998;-85
2021/11/03 03:45:37;;;;;;;39.50;24.27;;;;;;;9.36;100.00;99066.50;1701766;84;21077;-82
2021/11/03 03:48:05;;;;;;;37.03;24.45;;;;;;;9.38;100.00;99063.86;1681666;84;21053;-83
2021/11/03 03:50:32;;;;;;;33.60;23.00;;;;;;;9.38;100.00;99062.52;1658903;84;21725;-82
2021/11/03 03:52:59;;;;;;;38.65;26.00;;;;;;;9.35;100.00;99054.95;1709722;84;21295;-82
2021/11/03 03:55:25;;;;;;;36.17;26.27;;;;;;;9.36;100.00;99052.55;1701341;83;21556;-80
2021/11/03 03:57:52;;;;;;;37.30;24.87;;;;;;;9.38;100.00;99054.99;1675202;81;21003;-81
2021/11/03 04:00:19;;;;;;;39.35;23.80;;;;;;;9.36;100.00;99051.21;1752457;80;21059;-79
2021/11/03 04:02:48;;;;;;;36.20;22.55;;;;;;;9.35;100.00;99058.20;1769630;80;21030;-83
2021/11/03 04:05:15;;;;;;;30.95;24.55;;;;;;;9.31;100.00;99055.73;1742963;81;21007;-83
2021/11/03 04:07:43;;;;;;;35.75;24.63;;;;;;;9.32;100.00;99051.98;1743217;81;20929;-83
2021/11/03 04:10:10;;;;;;;30.95;24.27;;;;;;;9.29;100.00;99051.17;1744906;81;20987;-84
2021/11/03 04:12:37;;;;;;;38.85;26.25;;;;;;;9.30;100.00;99051.45;1740117;80;20991;-84
2021/11/03 04:15:05;;;;;;;37.85;27.22;;;;;;;9.25;100.00;99052.22;1771943;80;21094;-83
2021/11/03 04:17:31;;;;;;;38.42;25.52;;;;;;;9.30;100.00;99060.31;1768837;80;20965;-85
2021/11/03 04:20:01;;;;;;;34.43;24.92;;;;;;;9.34;100.00;99061.41;1750409;81;42144;-81
2021/11/03 04:22:29;;;;;;;35.90;23.80;;;;;;;9.32;100.00;99060.03;1714114;81;21525;-82
2021/11/03 04:24:55;;;;;;;40.35;27.27;;;;;;;9.28;100.00;99061.63;1733590;81;21070;-78
2021/11/03 04:27:22;;;;;;;36.98;25.20;;;;;;;9.27;100.00;99058.66;1723453;82;21840;-89
2021/11/03 04:29:48;;;;;;;32.25;22.48;;;;;;;9.30;100.00;99066.21;1709747;84;20938;-88
2021/11/03 04:32:17;;;;;;;37.28;23.95;;;;;;;9.34;100.00;99064.09;1703612;81;21463;-82
2021/11/03 04:34:48;;;;;;;35.95;26.07;;;;;;;9.35;100.00;99069.72;1764863;80;20948;-82
2021/11/03 04:37:14;;;;;;;35.08;25.35;;;;;;;9.33;100.00;99065.69;1738292;80;21042;-83
2021/11/03 04:39:41;;;;;;;36.00;25.08;;;;;;;9.27;100.00;99062.67;1779779;80;21154;-82
2021/11/03 04:42:07;;;;;;;39.73;27.82;;;;;;;9.23;100.00;99060.23;1729196;81;20987;-83
2021/11/03 04:44:34;;;;;;;33.85;25.68;;;;;;;9.26;100.00;99054.34;1761241;81;20939;-81
2021/11/03 04:47:01;;;;;;;33.48;22.93;;;;;;;9.29;100.00;99060.03;1744594;81;21027;-86
2021/11/03 04:49:30;;;;;;;35.52;25.70;;;;;;;9.34;100.00;99063.28;1746583;81;21518;-83
2021/11/03 04:51:57;;;;;;;38.50;24.87;;;;;;;9.28;100.00;99066.45;1733555;80;21070;-83
2021/11/03 04:54:25;;;;;;;36.40;25.45;;;;;;;9.24;100.00;99065.36;1713037;81;20975;-86
2021/11/03 04:56:51;;;;;;;35.38;25.57;;;;;;;9.23;100.00;99076.34;1740856;82;20999;-85
2021/11/03 04:59:18;;;;;;;36.03;24.57;;;;;;;9.27;100.00;99076.09;1751750;81;20948;-81
2021/11/03 05:01:46;;;;;;;36.65;26.70;;;;;;;9.30;100.00;99081.78;1733995;81;21075;-86
2021/11/03 05:04:12;;;;;;;35.20;25.55;;;;;;;9.36;100.00;99083.41;1729784;80;21160;-86
2021/11/03 05:06:44;;;;;;;33.58;23.83;;;;;;;9.41;100.00;99090.70;1773920;80;20942;-85
2021/11/03 05:09:12;;;;;;;36.85;26.82;;;;;;;9.47;100.00;99084.31;1741197;81;20896;-84
2021/11/03 05:11:39;;;;;;;36.08;27.22;;;;;;;9.45;100.00;99093.95;1731711;81;20990;-86
2021/11/03 05:14:06;;;;;;;33.25;24.52;;;;;;;9.46;100.00;99101.47;1712042;81;21047;-81
2021/11/03 05:16:33;;;;;;;35.60;23.67;;;;;;;9.48;100.00;99095.33;1770869;80;21238;-82
2021/11/03 05:19:00;;;;;;;37.17;24.15;;;;;;;9.52;100.00;99105.30;1776330;80;21001;-82
2021/11/03 05:21:29;;;;;;;30.12;23.95;;;;;;;9.51;100.00;99098.83;1778074;80;20938;-81
2021/11/03 05:23:57;;;;;;;41.50;20.35;;;;;;;9.53;100.00;99100.20;1731236;81;21034;-81
2021/11/03 05:26:25;;;;;;;39.73;22.65;;;;;;;9.56;100.00;99097.00;1711020;82;21067;-83
2021/11/03 05:28:55;;;;;;;27.98;21.85;;;;;;;9.59;100.00;99105.08;1709169;83;21040;-83
2021/11/03 05:31:22;;;;;;;22.13;17.62;;;;;;;9.63;100.00;99102.16;1709341;83;21014;-82
2021/11/03 05:33:48;;;;;;;35.03;21.65;;;;;;;9.67;100.00;99104.59;1690762;84;21516;-81
2021/11/03 05:36:21;;;;;;;31.40;22.85;;;;;;;9.65;100.00;99110.74;1691004;84;21051;-83
2021/11/03 05:38:47;;;;;;;25.77;20.55;;;;;;;9.69;100.00;99110.50;1691101;82;21103;-81
2021/11/03 05:41:13;;;;;;;33.75;21.97;;;;;;;9.67;100.00;99108.63;1709712;84;21114;-81
2021/11/03 05:43:41;;;;;;;25.90;20.37;;;;;;;9.67;100.00;99108.63;1709208;83;20955;-84
2021/11/03 05:46:07;;;;;;;29.12;20.85;;;;;;;9.62;100.00;99109.92;1730517;82;20983;-82
2021/11/03 05:48:37;;;;;;;29.10;20.60;;;;;;;9.61;100.00;99110.98;1740524;80;20951;-85
2021/11/03 05:51:09;;;;;;;26.70;20.43;;;;;;;9.62;100.00;99110.73;1740296;82;20931;-83
2021/11/03 05:53:38;;;;;;;32.20;19.77;;;;;;;9.60;100.00;99112.86;1755270;81;21903;-79
2021/11/03 05:56:08;;;;;;;27.62;20.23;;;;;;;9.62;100.00;99120.14;1755555;81;20946;-78
2021/11/03 05:58:36;;;;;;;23.57;18.95;;;;;;;9.63;100.00;99118.27;1754999;81;20970;-78
2021/11/03 06:01:03;;;;;;;26.23;17.40;;;;;;;9.62;100.00;99119.33;1707954;82;21043;-80
2021/11/03 06:03:30;;;;;;;25.17;20.75;;;;;;;9.62;100.00;99128.72;1709317;83;21047;-78
2021/11/03 06:05:56;;;;;;;24.82;17.42;;;;;;;9.63;100.00;99120.95;1709445;84;21688;-81
2021/11/03 06:08:22;;;;;;;24.12;19.35;;;;;;;9.69;100.00;99129.30;1724955;82;21031;-80
2021/11/03 06:10:53;;;;;;;25.02;19.52;;;;;;;9.68;100.00;99124.20;1740407;82;20944;-80
2021/11/03 06:13:20;;;;;;;20.55;15.35;;;;;;;9.65;100.00;99129.53;1708948;82;21567;-80
2021/11/03 06:15:47;;;;;;;17.92;14.98;;;;;;;9.66;100.00;99134.38;1730436;81;21054;-80
2021/11/03 06:18:15;;;;;;;20.32;17.20;;;;;;;9.69;100.00;99140.03;1737940;81;21001;-78
2021/11/03 06:20:41;;;;;;;21.17;16.55;;;;;;;9.76;100.00;99139.30;1738229;81;20947;-80
2021/11/03 06:23:07;;;;;;;20.23;15.65;;;;;;;9.84;100.00;99140.68;1738224;81;21011;-81
2021/11/03 06:25:35;;;;;;;19.60;15.18;;;;;;;9.89;100.00;99142.87;1766450;81;21043;-80
2021/11/03 06:28:01;;;;;;;19.40;16.20;;;;;;;9.89;100.00;99146.09;1714902;82;21089;-80
2021/11/03 06:30:32;;;;;;;16.30;13.48;;;;;;;9.87;100.00;99152.27;1742590;82;21921;-86
2021/11/03 06:32:59;;;;;;;20.75;16.52;;;;;;;9.85;100.00;99146.33;1746998;79;21607;-86
2021/11/03 06:35:27;;;;;;;17.17;14.00;;;;;;;9.82;100.00;99146.86;1766756;81;21006;-84
2021/11/03 06:37:54;;;;;;;20.10;14.23;;;;;;;9.81;100.00;99160.81;1730074;81;20999;-85
2021/11/03 06:40:23;;;;;;;16.55;14.00;;;;;;;9.80;100.00;99167.25;1769743;80;21609;-81
2021/11/03 06:42:54;;;;;;;16.55;13.25;;;;;;;9.85;100.00;99164.60;1743667;80;20998;-88
2021/11/03 06:45:22;;;;;;;14.75;13.22;;;;;;;9.87;100.00;99168.38;1725278;81;21030;-87
2021/11/03 06:47:49;;;;;;;14.83;12.33;;;;;;;9.87;100.00;99172.41;1761349;81;21500;-86
2021/11/03 06:50:20;;;;;;;17.55;13.90;;;;;;;9.85;100.00;99166.48;1761203;81;21047;-87
2021/11/03 06:52:49;;;;;;;17.17;15.03;;;;;;;9.81;100.00;99170.22;1733682;81;22288;-85
2021/11/03 06:55:17;;;;;;;13.28;11.50;;;;;;;9.82;100.00;99177.21;1743382;81;21285;-86
2021/11/03 06:57:43;;;;;;;13.18;11.70;;;;;;;9.78;100.00;99169.40;1727541;81;20998;-84
2021/11/03 07:00:14;;;;;;;13.45;11.30;;;;;;;9.78;100.00;99173.42;1761509;81;20955;-87
2021/11/03 07:02:41;;;;;;;14.20;11.70;;;;;;;9.79;100.00;99172.34;1720723;80;21052;-85
2021/11/03 07:05:08;;;;;;;12.58;11.28;;;;;;;9.78;100.00;99174.77;1780172;80;21009;-89
2021/11/03 07:07:34;;;;;;;13.18;11.33;;;;;;;9.81;100.00;99181.48;1779829;80;21071;-87
2021/11/03 07:10:01;;;;;;;14.20;12.43;;;;;;;9.86;100.00;99189.05;1727300;81;20945;-86
2021/11/03 07:12:27;;;;;;;12.40;10.90;;;;;;;9.92;100.00;99199.31;1761288;81;20997;-86
2021/11/03 07:14:54;;;;;;;11.03;9.65;;;;;;;9.92;100.00;99196.09;1761651;81;21179;-88
2021/11/03 07:17:20;;;;;;;14.93;12.30;;;;;;;9.94;100.00;99195.81;1746701;81;21596;-84
2021/11/03 07:19:46;;;;;;;14.65;11.90;;;;;;;9.96;100.00;99192.34;1763943;80;21861;-85
2021/11/03 07:22:13;;;;;;;14.78;10.70;;;;;;;9.94;100.00;99205.22;1736313;80;21546;-84
2021/11/03 07:24:39;;;;;;;16.02;11.80;;;;;;;9.95;100.00;99201.47;1780113;80;20902;-84
2021/11/03 07:27:06;;;;;;;13.53;12.23;;;;;;;9.87;100.00;99204.11;1739455;80;20985;-83
2021/11/03 07:29:34;;;;;;;11.88;10.63;;;;;;;9.83;100.00;99204.33;1777505;80;21040;-84
2021/11/03 07:32:00;;;;;;;12.82;11.38;;;;;;;9.82;100.00;99198.70;1701580;84;21037;-93
2021/11/03 07:34:28;;;;;;;17.77;12.40;;;;;;;9.82;100.00;99200.05;1752447;81;20908;-94
2021/11/03 07:36:55;;;;;;;17.20;14.47;;;;;;;9.80;100.00;99203.50;1730959;83;20982;-93
2021/11/03 07:39:21;;;;;;;13.58;11.40;;;;;;;9.81;100.00;99198.42;1727078;82;21006;-89
2021/11/03 07:41:48;;;;;;;13.20;11.38;;;;;;;9.83;100.00;99202.98;1728569;82;20976;-89
2021/11/03 07:44:16;;;;;;;15.05;11.48;;;;;;;9.85;100.00;99206.77;1704200;83;21033;-84
2021/11/03 07:46:43;;;;;;;12.55;10.85;;;;;;;9.86;100.00;99205.70;1730920;81;21047;-87
2021/11/03 07:49:09;;;;;;;14.33;12.65;;;;;;;9.85;100.00;99205.42;1708774;82;20967;-81
2021/11/03 07:51:35;;;;;;;13.95;12.45;;;;;;;9.82;100.00;99208.09;1732806;82;21056;-85
2021/11/03 07:54:02;;;;;;;16.93;12.63;;;;;;;9.81;100.00;99201.10;1713224;82;21139;-85
2021/11/03 07:56:33;;;;;;;12.95;10.78;;;;;;;9.86;100.00;99198.45;1727237;82;21154;-82
2021/11/03 07:58:59;;;;;;;12.68;11.40;;;;;;;9.91;100.00;99197.16;1725484;83;21512;-84
2021/11/03 08:01:26;;;;;;;12.88;11.33;;;;;;;9.96;100.00;99201.22;1732941;81;20943;-83
2021/11/03 08:03:52;;;;;;;13.45;11.50;;;;;;;9.97;100.00;99203.38;1716818;82;24084;-80
2021/11/03 08:06:19;;;;;;;13.25;11.73;;;;;;;10.01;100.00;99206.63;1740981;82;21556;-81
2021/11/03 08:08:56;;;;;;;15.10;12.47;;;;;;;10.05;100.00;99209.61;1704655;83;21491;-83
2021/11/03 08:11:21;;;;;;;16.42;11.78;;;;;;;10.06;100.00;99212.58;1724859;83;21055;-80
2021/11/03 08:13:47;;;;;;;14.63;12.20;;;;;;;10.08;100.00;99215.27;1727657;83;21038;-81
2021/11/03 08:16:13;;;;;;;15.20;13.48;;;;;;;10.16;100.00;99226.12;1694908;83;20964;-89
2021/11/03 08:18:42;;;;;;;14.93;13.32;;;;;;;10.17;100.00;99224.24;1669200;84;21042;-92
2021/11/03 08:21:10;;;;;;;14.25;12.82;;;;;;;10.20;100.00;99221.02;1668994;84;21141;-91
2021/11/03 08:23:37;;;;;;;16.57;14.25;;;;;;;10.19;100.00;99228.27;1704739;81;21018;-84
2021/11/03 08:26:04;;;;;;;17.10;15.28;;;;;;;10.18;100.00;99223.96;1756945;81;21004;-84
2021/11/03 08:28:30;;;;;;;15.32;13.58;;;;;;;10.20;100.00;99226.40;1733048;81;21020;-80
2021/11/03 08:30:56;;;;;;;16.32;14.20;;;;;;;10.24;100.00;99225.63;1719604;82;21081;-85
2021/11/03 08:33:36;;;;;;;14.83;13.30;;;;;;;10.26;100.00;99226.72;1713252;82;21963;-83
2021/11/03 08:36:05;;;;;;;16.00;13.72;;;;;;;10.27;100.00;99228.31;1708521;83;20955;-84
2021/11/03 08:38:33;;;;;;;14.90;13.50;;;;;;;10.27;100.00;99235.03;1692959;83;20975;-82
2021/11/03 08:40:59;;;;;;;14.30;12.80;;;;;;;10.30;100.00;99234.00;1705094;81;21059;-83
2021/11/03 08:43:28;;;;;;;16.82;15.05;;;;;;;10.31;100.00;99240.19;1750759;81;20996;-85
2021/11/03 08:45:56;;;;;;;16.90;15.08;;;;;;;10.35;100.00;99244.79;1729172;82;21054;-85
2021/11/03 08:48:23;;;;;;;16.00;13.78;;;;;;;10.41;100.00;99245.08;1728059;82;21558;-83
2021/11/03 08:50:49;;;;;;;17.62;14.47;;;;;;;10.39;100.00;99243.73;1748296;82;21030;-83
2021/11/03 08:53:17;;;;;;;18.98;13.93;;;;;;;10.40;100.00;99246.16;1738829;82;21470;-82
2021/11/03 08:55:48;;;;;;;17.15;15.45;;;;;;;10.46;100.00;99255.05;1756974;80;21019;-84
2021/11/03 08:58:16;;;;;;;16.93;14.60;;;;;;;10.43;100.00;99248.86;1756972;80;20981;-77
2021/11/03 09:00:44;;;;;;;18.70;16.80;;;;;;;10.52;100.00;99258.58;1757476;81;20992;-83
2021/11/03 09:03:12;;;;;;;15.95;14.35;;;;;;;10.55;100.00;99250.02;1767428;80;21055;-84
2021/11/03 09:05:38;;;;;;;17.57;15.70;;;;;;;10.57;100.00;99258.08;1753539;81;21135;-86
2021/11/03 09:08:05;;;;;;;17.00;14.93;;;;;;;10.57;100.00;99262.11;1702754;83;21555;-86
2021/11/03 09:10:35;;;;;;;20.65;18.27;;;;;;;10.57;100.00;99266.15;1705235;81;21119;-86
2021/11/03 09:13:02;;;;;;;19.57;17.37;;;;;;;10.61;100.00;99266.44;1784710;80;20936;-88
2021/11/03 09:15:28;;;;;;;23.07;19.10;;;;;;;10.67;100.00;99268.90;1757409;80;21036;-86
2021/11/03 09:17:56;;;;;;;20.35;15.85;;;;;;;10.72;100.00;99270.27;1757612;81;21007;-88
2021/11/03 09:20:24;;;;;;;18.48;16.50;;;;;;;10.77;100.00;99272.18;1757145;80;21000;-87
2021/11/03 09:22:50;;;;;;;17.98;16.23;;;;;;;10.81;100.00;99277.31;1750588;81;21348;-84
2021/11/03 09:25:20;;;;;;;18.62;15.70;;;;;;;10.89;100.00;99283.52;1723598;82;21011;-86
2021/11/03 09:27:46;;;;;;;22.70;16.95;;;;;;;10.93;100.00;99286.77;1773620;80;21058;-91
2021/11/03 09:30:14;;;;;;;17.05;15.00;;;;;;;11.02;100.00;99280.91;1741165;81;21008;-88
2021/11/03 09:32:45;;;;;;;19.52;17.15;;;;;;;11.14;100.00;99282.84;1703330;83;21050;-86
2021/11/03 09:35:13;;;;;;;18.05;16.17;;;;;;;11.18;100.00;99283.39;1725731;83;21190;-87
2021/11/03 09:37:39;;;;;;;18.80;16.80;;;;;;;11.25;100.00;99293.39;1725212;83;21508;-81
2021/11/03 09:40:10;;;;;;;20.52;15.90;;;;;;;11.28;100.00;99290.69;1748272;81;21003;-80
2021/11/03 09:42:37;;;;;;;18.55;16.07;;;;;;;11.33;100.00;99298.25;1738030;81;21003;-79
2021/11/03 09:45:09;;;;;;;17.48;15.60;;;;;;;11.37;100.00;99295.30;1751474;81;21032;-79
2021/11/03 09:47:37;;;;;;;17.82;15.98;;;;;;;11.46;100.00;99293.46;1740398;82;21148;-80
2021/11/03 09:50:20;;;;;;;20.12;15.68;;;;;;;11.47;100.00;99291.02;1739657;82;21524;-81
2021/11/03 09:52:57;;;;;;;20.15;14.47;;;;;;;11.47;100.00;99299.91;1715288;82;21548;-94
2021/11/03 09:55:30;;;;;;;17.52;14.68;;;;;;;11.44;100.00;99308.53;1770813;80;20962;-88
2021/11/03 09:58:16;;;;;;;17.85;15.72;;;;;;;11.44;100.00;99306.37;1754804;81;21113;-93
2021/11/03 10:00:51;;;;;;;16.27;14.38;;;;;;;11.45;100.00;99300.73;1755867;81;21172;-90
2021/11/03 10:03:47;;;;;;;17.05;15.20;;;;;;;11.52;100.00;99307.19;1772248;80;21039;-76
2021/11/03 10:06:44;;;;;;;15.78;14.13;;;;;;;11.59;100.00;99304.54;1741921;80;20935;-94
2021/11/03 10:09:10;;;;;;;18.60;13.18;;;;;;;11.61;100.00;99312.33;1772441;80;20979;-87
2021/11/03 10:11:40;;;;;;;18.17;15.38;;;;;;;11.65;100.00;99308.06;1727787;81;21050;-89
2021/11/03 10:14:08;;;;;;;20.25;15.08;;;;;;;11.60;100.00;99306.70;1753120;81;21140;-92
2021/11/03 10:16:43;;;;;;;19.25;16.40;;;;;;;11.63;100.00;99311.54;1766294;81;20984;-83
2021/11/03 10:19:31;;;;;;;22.67;15.15;;;;;;;11.63;100.00;99306.16;1742284;81;21512;-81
2021/11/03 10:22:29;;;;;;;18.07;14.00;;;;;;;11.62;100.00;99319.34;1735638;81;21007;-85
2021/11/03 10:25:20;;;;;;;20.10;16.45;;;;;;;11.67;100.00;99314.78;1709385;84;20967;-86
2021/11/03 10:27:55;;;;;;;;;;;;;;;11.79;100.00;99316.74;1748795;81;21154;-79
2021/11/03 10:30:33;;;;;;;23.27;17.50;;;;;;;11.84;100.00;99317.28;1734653;82;20523;-83
2021/11/03 10:33:25;;;;;;;20.10;15.00;;;;;;;11.87;100.00;99319.44;1711198;82;21059;-88
2021/11/03 10:35:59;;;;;;;19.48;15.48;;;;;;;11.96;100.00;99324.56;1715873;82;21548;-86
2021/11/03 10:38:26;;;;;;;19.27;15.32;;;;;;;12.01;100.00;99335.36;1709925;80;21206;-83
2021/11/03 10:41:03;;;;;;;21.05;17.05;;;;;;;12.01;100.00;99339.94;1715177;80;21793;-76
2021/11/03 10:43:42;;;;;;;21.90;15.88;;;;;;;12.02;100.00;99341.56;1740193;80;21034;-82
2021/11/03 10:46:23;;;;;;;19.65;17.05;;;;;;;12.05;100.00;99348.56;1720606;81;20986;-83
2021/11/03 10:48:55;;;;;;;24.77;17.48;;;;;;;12.13;100.00;99349.38;1738238;81;21550;-83
2021/11/03 10:51:35;;;;;;;21.48;17.42;;;;;;;12.22;100.00;99342.40;1687777;82;21042;-83
2021/11/03 10:54:07;;;;;;;21.30;17.10;;;;;;;12.26;100.00;99349.94;1710838;82;21106;-83
2021/11/03 10:56:38;;;;;;;20.60;18.30;;;;;;;12.27;100.00;99361.00;1740146;82;21021;-83
2021/11/03 10:59:22;;;;;;;20.60;15.93;;;;;;;12.29;100.00;99350.73;1738421;82;21021;-81
2021/11/03 11:01:48;;;;;;;25.30;20.72;;;;;;;12.29;100.00;99363.69;1738172;81;21020;-83
2021/11/03 11:04:25;;;;;;;25.68;19.27;;;;;;;12.27;100.00;99356.42;1730126;82;21051;-77
2021/11/03 11:06:55;;;;;;;20.55;17.67;;;;;;;12.36;100.00;99359.38;1722405;82;21715;-74
2021/11/03 11:09:31;;;;;;;25.48;19.12;;;;;;;12.49;100.00;99354.79;1710588;81;21480;-74
2021/11/03 11:12:01;;;;;;;27.35;20.75;;;;;;;12.57;100.00;99366.38;1747609;81;21351;-74
2021/11/03 11:14:31;;;;;;;28.67;21.55;;;;;;;12.59;100.00;99361.53;1721425;82;21015;-75
2021/11/03 11:17:02;;;;;;;25.65;21.02;;;;;;;12.67;100.00;99365.84;1719557;82;21047;-77
2021/11/03 11:20:12;;;;;;;26.52;21.48;;;;;;;12.75;100.00;99361.80;1695865;84;21164;-76
2021/11/03 11:23:11;;;;;;;27.65;21.23;;;;;;;12.78;98.89;99361.78;1709008;83;20992;-75
2021/11/03 11:26:06;;;;;;;26.10;21.35;;;;;;;12.76;98.83;99375.53;1726073;81;21028;-76